Surface observations / Europe / LEMH

Quebec | Canada | USA | France | UK | Europe | Elsewhere

Display: Info & Location for LEMH | Help decoding METAR

LEMH MAHON/MENORCA ISL -- SP
Raw surface observations for station LEMH
LEMH 242230Z 21008KT 170V230 9999 FEW025 15/13 Q1013=
LEMH 242200Z 21007KT 180V240 9999 FEW025 15/13 Q1013=
LEMH 242130Z 21007KT 170V240 9999 FEW025 15/14 Q1014=
LEMH 242100Z 21007KT 9999 FEW025 16/14 Q1014=
LEMH 242030Z 21007KT 9999 FEW025 16/14 Q1014=
LEMH 242000Z 21007KT 180V250 9999 FEW025 16/13 Q1014=
LEMH 241930Z 21007KT 9999 FEW025 15/13 Q1014=
LEMH 241900Z 21008KT 170V240 9999 FEW025 16/13 Q1014=
LEMH 241830Z 21008KT 170V230 9999 FEW025 16/13 Q1014=
LEMH 241800Z 20009KT 170V230 9999 FEW025 17/12 Q1014=
LEMH 241730Z 20011KT 170V230 CAVOK 18/13 Q1014=
LEMH 241700Z 20011KT 160V240 9999 FEW025 18/13 Q1015=
LEMH 241630Z 21009KT CAVOK 18/11 Q1015=
LEMH 241600Z 20010KT 160V240 CAVOK 19/12 Q1015=
LEMH 241530Z 21009KT 170V260 CAVOK 19/11 Q1015=
LEMH 241500Z 21010KT 180V250 CAVOK 19/13 Q1016=
LEMH 241430Z 22010KT 170V250 CAVOK 19/14 Q1016=
LEMH 241400Z 22009KT 190V270 CAVOK 19/14 Q1016=
LEMH 241330Z 22009KT 150V260 9999 FEW015 19/13 Q1017=
LEMH 241300Z 22008KT 170V260 9999 FEW015 19/14 Q1017=
LEMH 241230Z 22008KT 170V270 9999 FEW015 18/15 Q1018=
LEMH 241200Z 22008KT 180V280 9999 FEW011 19/15 Q1018=
LEMH 241130Z 21007KT 160V270 9999 FEW011 19/14 Q1018=
LEMH 241100Z 22007KT 170V250 9999 FEW011 19/15 Q1018=
LEMH 241030Z 22006KT 170V280 9999 FEW015 19/15 Q1019=
LEMH 241000Z 22006KT 160V280 9999 FEW017 19/15 Q1019=
LEMH 240930Z 21005KT 170V270 9999 FEW017 19/14 Q1019=
LEMH 240900Z 24006KT 190V290 9999 FEW017 18/15 Q1019=
LEMH 240830Z 22005KT 170V280 9999 FEW020 18/14 Q1019=
LEMH 240800Z 21004KT 170V270 9999 FEW020 17/14 Q1019=
LEMH 240730Z VRB02KT 9999 FEW006 19/12 Q1019=
LEMH 240700Z 02003KT 9999 FEW006 18/13 Q1019=
LEMH 240630Z 36003KT 9999 FEW006 15/14 Q1019=
LEMH 240600Z 01006KT 340V040 9000 FEW001 14/14 Q1019=
LEMH 240530Z 02006KT 3000 BR BKN001 14/13 Q1019=
LEMH 240500Z 35007KT 9999 FEW002 12/12 Q1019=
LEMH 240430Z 35003KT 9999 FEW002 12/12 Q1019=
LEMH 240400Z 36003KT 9000 FEW002 13/12 Q1019=
LEMH 240330Z 36003KT 6000 FEW002 12/12 Q1019=
LEMH 240300Z VRB01KT 0300 R01/0800U FG VV002 13/13 Q1019=
LEMH 240000Z 25003KT 220V290 3000 BR BKN001 16/15 Q1019=